Time;durP1;ratioP1;P1;durP2;ratioP2;P2;SDS_P1;SDS_P2;PMS_P1;PMS_P2;Temp;Humidity;BMP_temperature;BMP_pressure;BME280_temperature;BME280_humidity;BME280_pressure;Samples;Min_cycle;Max_cycle;Signal;HPM_P1;HPM_P2
2022/08/29 00:04:43;;;;;;;;;;;;;;;;;;21241356;27;19962;-53
2022/08/29 00:14:45;;;;;;;;;;;;;;;;;;21258593;27;20010;-54
2022/08/29 00:24:47;;;;;;;;;;;;;;;;;;21257131;27;20417;-52
2022/08/29 00:34:49;;;;;;;;;;;;;;;;;;21255879;27;20029;-53
2022/08/29 00:44:51;;;;;;;;;;;;;;;;;;21254256;27;19924;-54
2022/08/29 00:54:53;;;;;;;;;;;;;;;;;;21254547;27;19923;-53
2022/08/29 01:04:56;;;;;;;;;;;;;;;;;;21252286;27;20044;-53
2022/08/29 01:14:58;;;;;;;;;;;;;;;;;;21252266;27;20388;-53
2022/08/29 01:25:00;;;;;;;;;;;;;;;;;;21250301;27;20264;-52
2022/08/29 01:35:01;;;;;;;;;;;;;;;;;;21251429;27;19927;-53
2022/08/29 01:45:04;;;;;;;;;;;;;;;;;;21233598;27;20048;-54
2022/08/29 01:55:05;;;;;;;;;;;;;;;;;;21249547;27;19930;-53
2022/08/29 02:05:07;;;;;;;;;;;;;;;;;;21250063;27;19934;-52
2022/08/29 02:15:08;;;;;;;;;;;;;;;;;;21250040;27;19923;-53
2022/08/29 02:35:31;;;;;;;;;;;;;;;;;;21256964;27;20388;-54
2022/08/29 02:45:34;;;;;;;;;;;;;;;;;;21264178;27;19923;-53
2022/08/29 02:55:37;;;;;;;;;;;;;;;;;;21263399;27;19924;-54
2022/08/29 03:05:40;;;;;;;;;;;;;;;;;;21264020;27;20363;-56
2022/08/29 03:15:42;;;;;;;;;;;;;;;;;;21262309;27;19923;-54
2022/08/29 03:25:45;;;;;;;;;;;;;;;;;;21261395;27;19923;-52
2022/08/29 03:35:47;;;;;;;;;;;;;;;;;;21260555;27;19924;-56
2022/08/29 03:45:49;;;;;;;;;;;;;;;;;;21258399;27;19969;-54
2022/08/29 03:55:55;;;;;;;;;;;;;;;;;;21257920;27;20383;-53
2022/08/29 04:05:56;;;;;;;;;;;;;;;;;;21257292;27;19923;-51
2022/08/29 04:15:58;;;;;;;;;;;;;;;;;;21258744;27;19928;-55
2022/08/29 04:25:59;;;;;;;;;;;;;;;;;;21257953;27;19924;-55
2022/08/29 04:36:01;;;;;;;;;;;;;;;;;;21257800;27;19927;-52
2022/08/29 04:46:02;;;;;;;;;;;;;;;;;;21254373;27;19923;-55
2022/08/29 04:56:05;;;;;;;;;;;;;;;;;;21252057;27;19966;-56
2022/08/29 05:06:08;;;;;;;;;;;;;;;;;;21253445;27;19938;-53
2022/08/29 05:16:10;;;;;;;;;;;;;;;;;;21252937;27;19963;-54
2022/08/29 05:26:12;;;;;;;;;;;;;;;;;;21250497;27;19945;-56
2022/08/29 05:36:15;;;;;;;;;;;;;;;;;;21251548;27;19923;-54
2022/08/29 05:46:16;;;;;;;;;;;;;;;;;;21251010;27;20034;-55
2022/08/29 05:56:18;;;;;;;;;;;;;;;;;;21251276;27;20903;-57
2022/08/29 06:06:21;;;;;;;;;;;;;;;;;;21250950;27;20422;-53
2022/08/29 06:16:23;;;;;;;;;;;;;;;;;;21248190;27;20317;-53
2022/08/29 06:26:25;;;;;;;;;;;;;;;;;;21247773;28;19973;-53
2022/08/29 06:36:26;;;;;;;;;;;;;;;;;;21248720;28;19928;-53
2022/08/29 06:46:28;;;;;;;;;;;;;;;;;;21247622;28;19928;-54
2022/08/29 06:56:30;;;;;;;;;;;;;;;;;;21247191;27;19927;-54
2022/08/29 07:06:32;;;;;;;;;;;;;;;;;;21245820;28;19975;-55
2022/08/29 07:16:34;;;;;;;;;;;;;;;;;;21246161;28;19930;-59
2022/08/29 07:26:37;;;;;;;;;;;;;;;;;;21258745;27;19968;-54
2022/08/29 07:36:39;;;;;;;;;;;;;;;;;;21259739;27;19928;-54
2022/08/29 07:46:41;;;;;;;;;;;;;;;;;;21260134;27;19923;-53
2022/08/29 07:56:43;;;;;;;;;;;;;;;;;;21258109;27;19968;-58
2022/08/29 08:06:45;;;;;;;;;;;;;;;;;;21257932;27;19924;-61
2022/08/29 08:16:47;;;;;;;;;;;;;;;;;;21257047;27;20374;-60
2022/08/29 08:26:49;;;;;;;;;;;;;;;;;;21255823;27;19927;-58
2022/08/29 08:36:51;;;;;;;;;;;;;;;;;;21254948;27;19934;-61
2022/08/29 08:46:53;;;;;;;;;;;;;;;;;;21255373;27;19923;-60
2022/08/29 08:56:55;;;;;;;;;;;;;;;;;;21253809;27;20359;-62
2022/08/29 09:06:57;;;;;;;;;;;;;;;;;;21252444;27;20018;-60
2022/08/29 09:16:59;;;;;;;;;;;;;;;;;;21251808;27;20351;-62
2022/08/29 09:27:01;;;;;;;;;;;;;;;;;;21250758;27;19938;-53
2022/08/29 09:37:03;;;;;;;;;;;;;;;;;;21250246;27;20295;-57
2022/08/29 09:47:07;;;;;;;;;;;;;;;;;;21249140;27;19924;-54
2022/08/29 09:57:10;;;;;;;;;;;;;;;;;;21249845;27;20383;-56
2022/08/29 10:07:13;;;;;;;;;;;;;;;;;;21249986;27;20287;-55
2022/08/29 10:27:35;;;;;;;;;;;;;;;;;;21249686;27;19923;-54
2022/08/29 10:37:37;;;;;;;;;;;;;;;;;;21252329;28;19924;-54
2022/08/29 10:47:40;;;;;;;;;;;;;;;;;;21255717;28;19997;-55
2022/08/29 10:57:42;;;;;;;;;;;;;;;;;;21258847;27;19927;-53
2022/08/29 11:07:44;;;;;;;;;;;;;;;;;;21262824;27;19923;-54
2022/08/29 11:17:45;;;;;;;;;;;;;;;;;;21262260;27;19923;-57
2022/08/29 11:27:47;;;;;;;;;;;;;;;;;;21266626;27;19976;-55
2022/08/29 11:37:49;;;;;;;;;;;;;;;;;;21259750;27;19927;-54
2022/08/29 11:47:51;;;;;;;;;;;;;;;;;;21256738;27;19923;-53
2022/08/29 11:57:53;;;;;;;;;;;;;;;;;;21256338;27;19931;-59
2022/08/29 12:07:55;;;;;;;;;;;;;;;;;;21257181;27;19975;-54
2022/08/29 12:17:57;;;;;;;;;;;;;;;;;;21256522;27;20332;-56
2022/08/29 12:27:59;;;;;;;;;;;;;;;;;;21254903;27;19927;-57
2022/08/29 12:38:02;;;;;;;;;;;;;;;;;;21253486;27;20375;-53
2022/08/29 12:48:04;;;;;;;;;;;;;;;;;;21254309;27;19931;-56
2022/08/29 12:58:06;;;;;;;;;;;;;;;;;;21253220;27;19970;-54
2022/08/29 13:08:08;;;;;;;;;;;;;;;;;;21259072;27;19923;-54
2022/08/29 13:18:10;;;;;;;;;;;;;;;;;;21251795;27;19976;-55
2022/08/29 13:28:12;;;;;;;;;;;;;;;;;;21251129;27;19976;-54
2022/08/29 13:38:14;;;;;;;;;;;;;;;;;;21249705;27;20061;-55
2022/08/29 13:48:19;;;;;;;;;;;;;;;;;;21249495;27;19927;-54
2022/08/29 13:58:21;;;;;;;;;;;;;;;;;;21249395;27;19923;-55
2022/08/29 14:08:23;;;;;;;;;;;;;;;;;;21247054;27;19927;-54
2022/08/29 14:18:25;;;;;;;;;;;;;;;;;;21259862;27;20378;-53
2022/08/29 14:28:28;;;;;;;;;;;;;;;;;;21253886;27;19976;-55
2022/08/29 14:38:30;;;;;;;;;;;;;;;;;;21267275;27;19963;-55
2022/08/29 14:48:32;;;;;;;;;;;;;;;;;;21266285;27;20061;-54
2022/08/29 14:58:34;;;;;;;;;;;;;;;;;;21263897;27;19963;-55
2022/08/29 15:08:35;;;;;;;;;;;;;;;;;;21262511;27;19927;-53
2022/08/29 15:18:39;;;;;;;;;;;;;;;;;;21261199;27;20474;-54
2022/08/29 15:28:40;;;;;;;;;;;;;;;;;;21260035;27;19924;-54
2022/08/29 15:38:42;;;;;;;;;;;;;;;;;;21258506;27;19968;-53
2022/08/29 15:48:44;;;;;;;;;;;;;;;;;;21259530;27;19923;-52
2022/08/29 15:58:47;;;;;;;;;;;;;;;;;;21260709;27;20370;-54
2022/08/29 16:08:48;;;;;;;;;;;;;;;;;;21258188;27;19931;-55
2022/08/29 16:18:50;;;;;;;;;;;;;;;;;;21257374;27;20097;-54
2022/08/29 16:28:52;;;;;;;;;;;;;;;;;;21256942;27;19927;-54
2022/08/29 16:38:54;;;;;;;;;;;;;;;;;;21256945;27;20291;-54
2022/08/29 16:48:56;;;;;;;;;;;;;;;;;;21256098;27;20374;-53
2022/08/29 16:58:58;;;;;;;;;;;;;;;;;;21256027;27;19930;-53
2022/08/29 17:19:01;;;;;;;;;;;;;;;;;;21251933;27;19924;-54
2022/08/29 17:29:03;;;;;;;;;;;;;;;;;;21251229;27;20005;-54
2022/08/29 17:39:05;;;;;;;;;;;;;;;;;;21251446;27;20259;-56
2022/08/29 17:49:09;;;;;;;;;;;;;;;;;;21251128;27;19923;-54
2022/08/29 17:59:11;;;;;;;;;;;;;;;;;;21248884;27;20022;-53
2022/08/29 18:09:12;;;;;;;;;;;;;;;;;;21248254;27;19924;-62
2022/08/29 18:19:14;;;;;;;;;;;;;;;;;;21248090;27;19930;-62
2022/08/29 18:29:16;;;;;;;;;;;;;;;;;;21247246;27;19962;-54
2022/08/29 18:39:18;;;;;;;;;;;;;;;;;;21248231;28;20035;-62
2022/08/29 18:50:32;;;;;;;;;;;;;;;;;;21246794;28;19980;-62
2022/08/29 18:59:41;;;;;;;;;;;;;;;;;;21247400;28;19930;-54
2022/08/29 19:09:43;;;;;;;;;;;;;;;;;;21248258;27;20433;-58
2022/08/29 19:30:05;;;;;;;;;;;;;;;;;;21260696;27;19928;-57
2022/08/29 19:40:07;;;;;;;;;;;;;;;;;;21260592;27;19923;-57
2022/08/29 19:50:09;;;;;;;;;;;;;;;;;;21259043;27;19927;-55
2022/08/29 20:00:11;;;;;;;;;;;;;;;;;;21258384;27;19961;-55
2022/08/29 20:10:13;;;;;;;;;;;;;;;;;;21258022;27;19931;-55
2022/08/29 20:20:15;;;;;;;;;;;;;;;;;;21257924;27;19985;-55
2022/08/29 20:30:17;;;;;;;;;;;;;;;;;;21256450;27;19923;-55
2022/08/29 20:40:18;;;;;;;;;;;;;;;;;;21255810;27;20014;-54
2022/08/29 20:50:20;;;;;;;;;;;;;;;;;;21255382;27;19923;-58
2022/08/29 21:00:22;;;;;;;;;;;;;;;;;;21254214;27;19924;-56
2022/08/29 21:10:23;;;;;;;;;;;;;;;;;;21252574;27;19968;-53
2022/08/29 21:20:25;;;;;;;;;;;;;;;;;;21253151;27;20390;-54
2022/08/29 21:30:26;;;;;;;;;;;;;;;;;;21252481;27;19930;-55
2022/08/29 21:40:28;;;;;;;;;;;;;;;;;;21250106;27;19923;-54
2022/08/29 21:50:29;;;;;;;;;;;;;;;;;;21250196;27;19927;-56
2022/08/29 22:00:32;;;;;;;;;;;;;;;;;;21248820;27;19931;-53
2022/08/29 22:10:33;;;;;;;;;;;;;;;;;;21247984;27;20439;-54
2022/08/29 22:20:36;;;;;;;;;;;;;;;;;;21249103;27;19928;-55
2022/08/29 22:30:38;;;;;;;;;;;;;;;;;;21248479;27;20419;-54
2022/08/29 22:40:40;;;;;;;;;;;;;;;;;;21248366;28;19927;-54
2022/08/29 22:50:42;;;;;;;;;;;;;;;;;;21253756;27;19968;-54
2022/08/29 23:00:44;;;;;;;;;;;;;;;;;;21263255;27;19938;-53
2022/08/29 23:10:46;;;;;;;;;;;;;;;;;;21262314;27;20402;-61
2022/08/29 23:20:48;;;;;;;;;;;;;;;;;;21261991;27;19968;-60
2022/08/29 23:30:50;;;;;;;;;;;;;;;;;;21260519;27;20066;-61
2022/08/29 23:40:51;;;;;;;;;;;;;;;;;;21260195;27;19923;-62
2022/08/29 23:50:53;;;;;;;;;;;;;;;;;;21260481;27;19925;-62
